sensor_id;sensor_type;location;lat;lon;timestamp;pressure;altitude;pressure_sealevel;temperature;humidity
67987;BME280;54767;53.800;15.956;2023-04-27T00:01:11;100293.77;;;4.00;64.97
67987;BME280;54767;53.800;15.956;2023-04-27T00:03:39;100295.73;;;3.96;64.89
67987;BME280;54767;53.800;15.956;2023-04-27T00:06:07;100294.74;;;3.92;65.08
67987;BME280;54767;53.800;15.956;2023-04-27T00:08:35;100292.89;;;3.89;64.97
67987;BME280;54767;53.800;15.956;2023-04-27T00:11:02;100296.80;;;3.86;65.08
67987;BME280;54767;53.800;15.956;2023-04-27T00:13:29;100289.31;;;3.84;65.12
67987;BME280;54767;53.800;15.956;2023-04-27T00:15:56;100292.34;;;3.81;64.85
67987;BME280;54767;53.800;15.956;2023-04-27T00:18:22;100292.62;;;3.78;64.77
67987;BME280;54767;53.800;15.956;2023-04-27T00:20:49;100295.63;;;3.75;65.20
67987;BME280;54767;53.800;15.956;2023-04-27T00:23:16;100298.42;;;3.70;65.07
67987;BME280;54767;53.800;15.956;2023-04-27T00:25:43;100294.67;;;3.67;65.44
67987;BME280;54767;53.800;15.956;2023-04-27T00:28:10;100297.12;;;3.62;65.54
67987;BME280;54767;53.800;15.956;2023-04-27T00:30:36;100299.95;;;3.59;65.94
67987;BME280;54767;53.800;15.956;2023-04-27T00:33:03;100297.80;;;3.55;65.99
67987;BME280;54767;53.800;15.956;2023-04-27T00:35:32;100298.65;;;3.55;66.27
67987;BME280;54767;53.800;15.956;2023-04-27T00:37:59;100298.17;;;3.56;66.44
67987;BME280;54767;53.800;15.956;2023-04-27T00:40:26;100296.45;;;3.57;66.27
67987;BME280;54767;53.800;15.956;2023-04-27T00:42:52;100295.24;;;3.57;66.65
67987;BME280;54767;53.800;15.956;2023-04-27T00:45:19;100295.57;;;3.56;66.66
67987;BME280;54767;53.800;15.956;2023-04-27T00:47:46;100297.96;;;3.56;66.95
67987;BME280;54767;53.800;15.956;2023-04-27T00:50:13;100300.14;;;3.53;66.66
67987;BME280;54767;53.800;15.956;2023-04-27T00:52:40;100296.98;;;3.52;66.76
67987;BME280;54767;53.800;15.956;2023-04-27T00:55:07;100298.53;;;3.52;66.87
67987;BME280;54767;53.800;15.956;2023-04-27T00:57:35;100298.86;;;3.51;66.92
67987;BME280;54767;53.800;15.956;2023-04-27T01:00:02;100299.17;;;3.50;66.76
67987;BME280;54767;53.800;15.956;2023-04-27T01:02:32;100302.50;;;3.46;66.66
67987;BME280;54767;53.800;15.956;2023-04-27T01:05:01;100300.64;;;3.42;66.49
67987;BME280;54767;53.800;15.956;2023-04-27T01:07:28;100304.63;;;3.36;66.50
67987;BME280;54767;53.800;15.956;2023-04-27T01:09:55;100307.10;;;3.32;66.57
67987;BME280;54767;53.800;15.956;2023-04-27T01:12:22;100308.85;;;3.28;66.52
67987;BME280;54767;53.800;15.956;2023-04-27T01:14:48;100310.63;;;3.24;66.57
67987;BME280;54767;53.800;15.956;2023-04-27T01:17:15;100305.95;;;3.19;66.65
67987;BME280;54767;53.800;15.956;2023-04-27T01:19:43;100312.07;;;3.15;66.76
67987;BME280;54767;53.800;15.956;2023-04-27T01:22:10;100309.77;;;3.14;66.81
67987;BME280;54767;53.800;15.956;2023-04-27T01:24:37;100313.38;;;3.13;67.20
67987;BME280;54767;53.800;15.956;2023-04-27T01:27:04;100309.70;;;3.12;67.27
67987;BME280;54767;53.800;15.956;2023-04-27T01:29:31;100311.89;;;3.10;67.17
67987;BME280;54767;53.800;15.956;2023-04-27T01:31:58;100310.96;;;3.08;67.37
67987;BME280;54767;53.800;15.956;2023-04-27T01:34:25;100312.08;;;3.05;67.58
67987;BME280;54767;53.800;15.956;2023-04-27T01:36:51;100313.91;;;3.04;67.86
67987;BME280;54767;53.800;15.956;2023-04-27T01:39:18;100314.08;;;3.03;68.02
67987;BME280;54767;53.800;15.956;2023-04-27T01:41:45;100314.25;;;3.04;67.94
67987;BME280;54767;53.800;15.956;2023-04-27T01:44:12;100311.40;;;3.06;67.97
67987;BME280;54767;53.800;15.956;2023-04-27T01:46:38;100312.92;;;3.05;67.94
67987;BME280;54767;53.800;15.956;2023-04-27T01:49:05;100315.08;;;3.02;68.11
67987;BME280;54767;53.800;15.956;2023-04-27T01:51:32;100316.59;;;3.01;68.08
67987;BME280;54767;53.800;15.956;2023-04-27T01:53:59;100317.79;;;2.95;68.02
67987;BME280;54767;53.800;15.956;2023-04-27T01:56:26;100321.43;;;2.90;68.17
67987;BME280;54767;53.800;15.956;2023-04-27T01:58:52;100322.70;;;2.87;68.33
67987;BME280;54767;53.800;15.956;2023-04-27T02:01:19;100321.80;;;2.86;68.32
67987;BME280;54767;53.800;15.956;2023-04-27T02:03:46;100325.82;;;2.87;68.28
67987;BME280;54767;53.800;15.956;2023-04-27T02:06:13;100322.69;;;2.87;68.39
67987;BME280;54767;53.800;15.956;2023-04-27T02:08:40;100323.70;;;2.86;68.38
67987;BME280;54767;53.800;15.956;2023-04-27T02:11:07;100327.08;;;2.83;68.38
67987;BME280;54767;53.800;15.956;2023-04-27T02:13:34;100328.69;;;2.80;68.52
67987;BME280;54767;53.800;15.956;2023-04-27T02:16:01;100327.77;;;2.79;68.70
67987;BME280;54767;53.800;15.956;2023-04-27T02:18:30;100330.46;;;2.77;68.68
67987;BME280;54767;53.800;15.956;2023-04-27T02:21:07;100331.34;;;2.77;68.74
67987;BME280;54767;53.800;15.956;2023-04-27T02:23:35;100332.41;;;2.78;68.82
67987;BME280;54767;53.800;15.956;2023-04-27T02:26:03;100330.98;;;2.76;68.87
67987;BME280;54767;53.800;15.956;2023-04-27T02:28:30;100335.14;;;2.72;68.96
67987;BME280;54767;53.800;15.956;2023-04-27T02:30:58;100331.48;;;2.71;69.08
67987;BME280;54767;53.800;15.956;2023-04-27T02:33:24;100337.69;;;2.70;69.23
67987;BME280;54767;53.800;15.956;2023-04-27T02:35:51;100340.62;;;2.70;69.29
67987;BME280;54767;53.800;15.956;2023-04-27T02:38:18;100340.95;;;2.69;69.24
67987;BME280;54767;53.800;15.956;2023-04-27T02:40:45;100340.42;;;2.70;69.31
67987;BME280;54767;53.800;15.956;2023-04-27T02:43:12;100340.30;;;2.71;69.49
67987;BME280;54767;53.800;15.956;2023-04-27T02:45:38;100334.89;;;2.70;69.36
67987;BME280;54767;53.800;15.956;2023-04-27T02:48:05;100341.73;;;2.68;69.56
67987;BME280;54767;53.800;15.956;2023-04-27T02:50:32;100339.20;;;2.65;69.64
67987;BME280;54767;53.800;15.956;2023-04-27T02:52:59;100345.42;;;2.64;69.59
67987;BME280;54767;53.800;15.956;2023-04-27T02:55:26;100341.63;;;2.65;69.60
67987;BME280;54767;53.800;15.956;2023-04-27T02:57:53;100345.99;;;2.66;69.54
67987;BME280;54767;53.800;15.956;2023-04-27T03:00:19;100342.70;;;2.66;69.60
67987;BME280;54767;53.800;15.956;2023-04-27T03:02:46;100340.27;;;2.66;69.52
67987;BME280;54767;53.800;15.956;2023-04-27T03:05:13;100348.03;;;2.65;69.64
67987;BME280;54767;53.800;15.956;2023-04-27T03:07:40;100348.61;;;2.62;69.64
67987;BME280;54767;53.800;15.956;2023-04-27T03:10:08;100351.09;;;2.59;69.59
67987;BME280;54767;53.800;15.956;2023-04-27T03:12:34;100350.66;;;2.57;69.67
67987;BME280;54767;53.800;15.956;2023-04-27T03:15:01;100349.46;;;2.57;69.76
67987;BME280;54767;53.800;15.956;2023-04-27T03:17:28;100352.75;;;2.57;69.75
67987;BME280;54767;53.800;15.956;2023-04-27T03:19:55;100354.48;;;2.57;69.66
67987;BME280;54767;53.800;15.956;2023-04-27T03:22:22;100352.27;;;2.58;69.64
67987;BME280;54767;53.800;15.956;2023-04-27T03:24:49;100355.34;;;2.57;69.79
67987;BME280;54767;53.800;15.956;2023-04-27T03:27:16;100354.96;;;2.56;69.76
67987;BME280;54767;53.800;15.956;2023-04-27T03:29:42;100358.00;;;2.54;69.83
67987;BME280;54767;53.800;15.956;2023-04-27T03:32:09;100357.41;;;2.52;69.73
67987;BME280;54767;53.800;15.956;2023-04-27T03:34:36;100362.64;;;2.53;69.78
67987;BME280;54767;53.800;15.956;2023-04-27T03:37:03;100364.91;;;2.54;69.63
67987;BME280;54767;53.800;15.956;2023-04-27T03:39:30;100368.92;;;2.55;69.56
67987;BME280;54767;53.800;15.956;2023-04-27T03:41:56;100368.20;;;2.54;69.42
67987;BME280;54767;53.800;15.956;2023-04-27T03:44:23;100371.27;;;2.53;69.37
67987;BME280;54767;53.800;15.956;2023-04-27T03:46:50;100374.34;;;2.52;69.26
67987;BME280;54767;53.800;15.956;2023-04-27T03:49:16;100376.18;;;2.51;69.22
67987;BME280;54767;53.800;15.956;2023-04-27T03:51:44;100378.52;;;2.48;69.22
67987;BME280;54767;53.800;15.956;2023-04-27T03:54:11;100378.42;;;2.45;69.27
67987;BME280;54767;53.800;15.956;2023-04-27T03:56:37;100384.02;;;2.43;69.41
67987;BME280;54767;53.800;15.956;2023-04-27T03:59:04;100390.17;;;2.41;69.33
67987;BME280;54767;53.800;15.956;2023-04-27T04:01:31;100390.69;;;2.41;69.49
67987;BME280;54767;53.800;15.956;2023-04-27T04:03:59;100388.98;;;2.41;69.59
67987;BME280;54767;53.800;15.956;2023-04-27T04:06:27;100390.36;;;2.41;69.97
67987;BME280;54767;53.800;15.956;2023-04-27T04:08:54;100393.81;;;2.41;70.06
67987;BME280;54767;53.800;15.956;2023-04-27T04:11:21;100399.80;;;2.40;70.06
67987;BME280;54767;53.800;15.956;2023-04-27T04:13:48;100397.34;;;2.38;70.28
67987;BME280;54767;53.800;15.956;2023-04-27T04:16:15;100400.48;;;2.40;70.45
67987;BME280;54767;53.800;15.956;2023-04-27T04:18:42;100407.88;;;2.43;70.54
67987;BME280;54767;53.800;15.956;2023-04-27T04:21:08;100410.96;;;2.47;70.62
67987;BME280;54767;53.800;15.956;2023-04-27T04:23:37;100414.64;;;2.49;70.67
67987;BME280;54767;53.800;15.956;2023-04-27T04:26:06;100415.73;;;2.50;70.82
67987;BME280;54767;53.800;15.956;2023-04-27T04:28:34;100418.95;;;2.53;70.90
67987;BME280;54767;53.800;15.956;2023-04-27T04:31:01;100417.55;;;2.57;70.97
67987;BME280;54767;53.800;15.956;2023-04-27T04:33:28;100414.44;;;2.62;71.00
67987;BME280;54767;53.800;15.956;2023-04-27T04:35:56;100419.39;;;2.70;70.81
67987;BME280;54767;53.800;15.956;2023-04-27T04:38:24;100415.52;;;2.77;70.91
67987;BME280;54767;53.800;15.956;2023-04-27T04:40:51;100415.62;;;2.85;70.85
67987;BME280;54767;53.800;15.956;2023-04-27T04:43:18;100418.82;;;2.92;71.06
67987;BME280;54767;53.800;15.956;2023-04-27T04:45:45;100417.16;;;2.99;71.07
67987;BME280;54767;53.800;15.956;2023-04-27T04:48:15;100420.98;;;3.05;70.80
67987;BME280;54767;53.800;15.956;2023-04-27T04:50:43;100419.64;;;3.11;70.77
67987;BME280;54767;53.800;15.956;2023-04-27T04:53:09;100419.42;;;3.19;71.02
67987;BME280;54767;53.800;15.956;2023-04-27T04:55:36;100422.92;;;3.31;70.96
67987;BME280;54767;53.800;15.956;2023-04-27T04:58:03;100422.95;;;3.42;70.87
67987;BME280;54767;53.800;15.956;2023-04-27T05:00:30;100422.95;;;3.52;70.68
67987;BME280;54767;53.800;15.956;2023-04-27T05:02:56;100424.42;;;3.60;70.88
67987;BME280;54767;53.800;15.956;2023-04-27T05:05:24;100425.18;;;3.67;70.62
67987;BME280;54767;53.800;15.956;2023-04-27T05:07:51;100425.91;;;3.73;70.37
67987;BME280;54767;53.800;15.956;2023-04-27T05:10:18;100428.81;;;3.78;70.74
67987;BME280;54767;53.800;15.956;2023-04-27T05:12:44;100426.81;;;3.86;70.76
67987;BME280;54767;53.800;15.956;2023-04-27T05:15:11;100429.20;;;3.95;70.51
67987;BME280;54767;53.800;15.956;2023-04-27T05:17:38;100432.13;;;4.06;70.75
67987;BME280;54767;53.800;15.956;2023-04-27T05:20:06;100428.98;;;4.21;70.86
67987;BME280;54767;53.800;15.956;2023-04-27T05:22:33;100434.22;;;4.34;70.52
67987;BME280;54767;53.800;15.956;2023-04-27T05:25:00;100432.55;;;4.48;70.61
67987;BME280;54767;53.800;15.956;2023-04-27T05:27:26;100431.41;;;4.68;71.55
67987;BME280;54767;53.800;15.956;2023-04-27T05:29:53;100428.80;;;4.87;70.92
67987;BME280;54767;53.800;15.956;2023-04-27T05:32:20;100431.93;;;4.99;70.92
67987;BME280;54767;53.800;15.956;2023-04-27T05:34:47;100432.48;;;5.07;70.03
67987;BME280;54767;53.800;15.956;2023-04-27T05:37:15;100431.36;;;5.10;70.16
67987;BME280;54767;53.800;15.956;2023-04-27T05:39:42;100433.29;;;5.18;70.04
67987;BME280;54767;53.800;15.956;2023-04-27T05:42:09;100433.62;;;5.36;70.04
67987;BME280;54767;53.800;15.956;2023-04-27T05:44:35;100434.66;;;5.57;70.65
67987;BME280;54767;53.800;15.956;2023-04-27T05:47:02;100431.44;;;5.74;69.88
67987;BME280;54767;53.800;15.956;2023-04-27T05:49:29;100438.00;;;5.86;70.31
67987;BME280;54767;53.800;15.956;2023-04-27T05:51:56;100438.66;;;6.13;70.30
67987;BME280;54767;53.800;15.956;2023-04-27T05:54:24;100437.46;;;6.28;69.65
67987;BME280;54767;53.800;15.956;2023-04-27T05:56:53;100439.78;;;6.40;69.11
67987;BME280;54767;53.800;15.956;2023-04-27T05:59:20;100442.73;;;6.39;68.60
67987;BME280;54767;53.800;15.956;2023-04-27T06:01:47;100438.98;;;6.42;68.68
67987;BME280;54767;53.800;15.956;2023-04-27T06:04:14;100443.34;;;6.50;68.46
67987;BME280;54767;53.800;15.956;2023-04-27T06:06:41;100440.32;;;6.56;68.07
67987;BME280;54767;53.800;15.956;2023-04-27T06:09:08;100446.55;;;6.54;67.72
67987;BME280;54767;53.800;15.956;2023-04-27T06:11:35;100445.69;;;6.55;67.87
67987;BME280;54767;53.800;15.956;2023-04-27T06:14:02;100445.92;;;6.58;67.82
67987;BME280;54767;53.800;15.956;2023-04-27T06:16:29;100450.12;;;6.59;67.58
67987;BME280;54767;53.800;15.956;2023-04-27T06:18:56;100443.73;;;6.62;67.46
67987;BME280;54767;53.800;15.956;2023-04-27T06:21:23;100446.58;;;6.65;67.58
67987;BME280;54767;53.800;15.956;2023-04-27T06:23:50;100442.77;;;6.65;67.54
67987;BME280;54767;53.800;15.956;2023-04-27T06:26:16;100443.89;;;6.69;67.57
67987;BME280;54767;53.800;15.956;2023-04-27T06:28:43;100445.67;;;6.71;67.13
67987;BME280;54767;53.800;15.956;2023-04-27T06:31:10;100447.55;;;6.69;66.99
67987;BME280;54767;53.800;15.956;2023-04-27T06:33:37;100443.73;;;6.69;67.04
67987;BME280;54767;53.800;15.956;2023-04-27T06:36:05;100447.75;;;6.70;66.91
67987;BME280;54767;53.800;15.956;2023-04-27T06:38:31;100440.79;;;6.70;66.67
67987;BME280;54767;53.800;15.956;2023-04-27T06:40:58;100443.11;;;6.73;66.97
67987;BME280;54767;53.800;15.956;2023-04-27T06:43:25;100441.50;;;6.79;67.02
67987;BME280;54767;53.800;15.956;2023-04-27T06:45:52;100440.73;;;6.85;66.96
67987;BME280;54767;53.800;15.956;2023-04-27T06:48:18;100441.08;;;6.93;66.97
67987;BME280;54767;53.800;15.956;2023-04-27T06:50:46;100442.54;;;7.06;66.97
67987;BME280;54767;53.800;15.956;2023-04-27T06:53:13;100443.98;;;7.08;66.09
67987;BME280;54767;53.800;15.956;2023-04-27T06:55:42;100442.45;;;7.09;66.14
67987;BME280;54767;53.800;15.956;2023-04-27T06:58:15;100445.06;;;7.10;65.83
67987;BME280;54767;53.800;15.956;2023-04-27T07:00:42;100442.00;;;7.13;66.07
67987;BME280;54767;53.800;15.956;2023-04-27T07:03:09;100438.89;;;7.15;65.60
67987;BME280;54767;53.800;15.956;2023-04-27T07:05:36;100446.46;;;7.11;65.39
67987;BME280;54767;53.800;15.956;2023-04-27T07:08:03;100444.54;;;7.10;65.53
67987;BME280;54767;53.800;15.956;2023-04-27T07:10:34;100442.85;;;7.12;65.68
67987;BME280;54767;53.800;15.956;2023-04-27T07:13:01;100440.77;;;7.13;65.22
67987;BME280;54767;53.800;15.956;2023-04-27T07:15:29;100448.14;;;7.16;65.24
67987;BME280;54767;53.800;15.956;2023-04-27T07:17:56;100443.24;;;7.24;65.09
67987;BME280;54767;53.800;15.956;2023-04-27T07:20:23;100449.84;;;7.32;65.17
67987;BME280;54767;53.800;15.956;2023-04-27T07:22:50;100454.86;;;7.40;65.01
67987;BME280;54767;53.800;15.956;2023-04-27T07:25:18;100458.64;;;7.47;64.78
67987;BME280;54767;53.800;15.956;2023-04-27T07:27:45;100461.80;;;7.48;64.42
67987;BME280;54767;53.800;15.956;2023-04-27T07:30:12;100462.10;;;7.45;64.00
67987;BME280;54767;53.800;15.956;2023-04-27T07:32:40;100462.27;;;7.45;64.02
67987;BME280;54767;53.800;15.956;2023-04-27T07:35:08;100462.83;;;7.47;63.76
67987;BME280;54767;53.800;15.956;2023-04-27T07:37:35;100457.66;;;7.50;63.94
67987;BME280;54767;53.800;15.956;2023-04-27T07:40:06;100457.42;;;7.57;63.63
67987;BME280;54767;53.800;15.956;2023-04-27T07:42:39;100461.09;;;7.57;62.85
67987;BME280;54767;53.800;15.956;2023-04-27T07:45:08;100465.92;;;7.55;62.50
67987;BME280;54767;53.800;15.956;2023-04-27T07:47:35;100464.54;;;7.55;62.65
67987;BME280;54767;53.800;15.956;2023-04-27T07:50:02;100466.02;;;7.60;63.04
67987;BME280;54767;53.800;15.956;2023-04-27T07:52:30;100472.80;;;7.70;63.18
67987;BME280;54767;53.800;15.956;2023-04-27T07:54:56;100467.02;;;7.79;62.55
67987;BME280;54767;53.800;15.956;2023-04-27T07:57:23;100471.18;;;7.87;62.15
67987;BME280;54767;53.800;15.956;2023-04-27T07:59:50;100472.33;;;7.94;61.45
67987;BME280;54767;53.800;15.956;2023-04-27T08:02:17;100476.58;;;7.97;60.75
67987;BME280;54767;53.800;15.956;2023-04-27T08:04:48;100472.89;;;7.94;59.94
67987;BME280;54767;53.800;15.956;2023-04-27T08:07:16;100480.05;;;7.96;60.35
67987;BME280;54767;53.800;15.956;2023-04-27T08:09:43;100479.70;;;8.07;59.70
67987;BME280;54767;53.800;15.956;2023-04-27T08:12:10;100484.23;;;8.18;59.80
67987;BME280;54767;53.800;15.956;2023-04-27T08:14:37;100484.10;;;8.21;59.43
67987;BME280;54767;53.800;15.956;2023-04-27T08:17:04;100487.73;;;8.19;58.64
67987;BME280;54767;53.800;15.956;2023-04-27T08:19:31;100491.87;;;8.16;58.79
67987;BME280;54767;53.800;15.956;2023-04-27T08:21:57;100490.06;;;8.13;58.78
67987;BME280;54767;53.800;15.956;2023-04-27T08:24:24;100492.27;;;8.09;58.35
67987;BME280;54767;53.800;15.956;2023-04-27T08:26:51;100492.80;;;8.09;58.16
67987;BME280;54767;53.800;15.956;2023-04-27T08:29:18;100495.39;;;8.08;57.89
67987;BME280;54767;53.800;15.956;2023-04-27T08:31:58;100492.88;;;8.03;57.39
67987;BME280;54767;53.800;15.956;2023-04-27T08:34:26;100486.90;;;8.00;57.75
67987;BME280;54767;53.800;15.956;2023-04-27T08:36:53;100485.91;;;8.03;57.97
67987;BME280;54767;53.800;15.956;2023-04-27T08:39:20;100479.90;;;8.09;58.26
67987;BME280;54767;53.800;15.956;2023-04-27T08:41:47;100479.86;;;8.17;58.01
67987;BME280;54767;53.800;15.956;2023-04-27T08:44:14;100482.98;;;8.16;56.82
67987;BME280;54767;53.800;15.956;2023-04-27T08:46:41;100478.59;;;8.13;56.51
67987;BME280;54767;53.800;15.956;2023-04-27T08:49:08;100478.51;;;8.09;56.15
67987;BME280;54767;53.800;15.956;2023-04-27T08:51:35;100484.70;;;8.03;55.99
67987;BME280;54767;53.800;15.956;2023-04-27T08:54:02;100486.25;;;8.04;56.42
67987;BME280;54767;53.800;15.956;2023-04-27T08:56:29;100484.50;;;8.02;56.05
67987;BME280;54767;53.800;15.956;2023-04-27T08:58:57;100486.56;;;8.00;56.09
67987;BME280;54767;53.800;15.956;2023-04-27T09:01:27;100489.16;;;7.99;56.56
67987;BME280;54767;53.800;15.956;2023-04-27T09:03:58;100491.77;;;7.98;56.11
67987;BME280;54767;53.800;15.956;2023-04-27T09:06:30;100494.14;;;7.95;55.28
67987;BME280;54767;53.800;15.956;2023-04-27T09:08:59;100493.21;;;7.91;55.96
67987;BME280;54767;53.800;15.956;2023-04-27T09:11:31;100491.36;;;7.96;56.22
67987;BME280;54767;53.800;15.956;2023-04-27T09:14:01;100493.39;;;8.02;56.02
67987;BME280;54767;53.800;15.956;2023-04-27T09:16:29;100494.84;;;8.05;55.89
67987;BME280;54767;53.800;15.956;2023-04-27T09:18:57;100489.63;;;8.06;56.38
67987;BME280;54767;53.800;15.956;2023-04-27T09:21:29;100488.65;;;8.11;56.60
67987;BME280;54767;53.800;15.956;2023-04-27T09:24:09;100488.98;;;8.20;56.63
67987;BME280;54767;53.800;15.956;2023-04-27T09:26:36;100484.22;;;8.28;56.33
67987;BME280;54767;53.800;15.956;2023-04-27T09:29:03;100489.99;;;8.40;56.72
67987;BME280;54767;53.800;15.956;2023-04-27T09:31:31;100489.48;;;8.51;56.71
67987;BME280;54767;53.800;15.956;2023-04-27T09:33:58;100488.05;;;8.62;56.06
67987;BME280;54767;53.800;15.956;2023-04-27T09:36:26;100484.84;;;8.70;55.60
67987;BME280;54767;53.800;15.956;2023-04-27T09:38:52;100483.15;;;8.74;55.08
67987;BME280;54767;53.800;15.956;2023-04-27T09:41:19;100478.89;;;8.81;55.19
67987;BME280;54767;53.800;15.956;2023-04-27T09:43:47;100475.50;;;8.90;54.84
67987;BME280;54767;53.800;15.956;2023-04-27T09:46:14;100474.89;;;8.97;54.78
67987;BME280;54767;53.800;15.956;2023-04-27T09:48:41;100475.02;;;9.06;53.97
67987;BME280;54767;53.800;15.956;2023-04-27T09:51:08;100473.17;;;9.13;53.44
67987;BME280;54767;53.800;15.956;2023-04-27T09:53:53;100467.45;;;9.16;52.06
67987;BME280;54767;53.800;15.956;2023-04-27T09:56:47;100478.59;;;9.13;51.79
67987;BME280;54767;53.800;15.956;2023-04-27T10:01:57;100471.97;;;9.15;51.70
67987;BME280;54767;53.800;15.956;2023-04-27T10:07:15;100484.23;;;9.20;52.19
67987;BME280;54767;53.800;15.956;2023-04-27T10:09:48;100479.92;;;9.23;52.11
67987;BME280;54767;53.800;15.956;2023-04-27T10:12:32;100484.11;;;9.22;51.89
67987;BME280;54767;53.800;15.956;2023-04-27T10:15:16;100482.52;;;9.20;51.12
67987;BME280;54767;53.800;15.956;2023-04-27T10:17:48;100488.40;;;9.16;51.06
67987;BME280;54767;53.800;15.956;2023-04-27T10:20:16;100489.24;;;9.14;50.96
67987;BME280;54767;53.800;15.956;2023-04-27T10:22:48;100485.40;;;9.14;50.85
67987;BME280;54767;53.800;15.956;2023-04-27T10:25:20;100487.48;;;9.12;50.01
67987;BME280;54767;53.800;15.956;2023-04-27T10:27:48;100488.48;;;9.08;50.46
67987;BME280;54767;53.800;15.956;2023-04-27T10:30:18;100489.69;;;9.08;51.17
67987;BME280;54767;53.800;15.956;2023-04-27T10:32:57;100490.35;;;9.04;50.68
67987;BME280;54767;53.800;15.956;2023-04-27T10:38:17;100493.92;;;8.97;51.20
67987;BME280;54767;53.800;15.956;2023-04-27T10:40:56;100493.53;;;8.94;51.51
67987;BME280;54767;53.800;15.956;2023-04-27T10:43:25;100495.91;;;8.88;51.71
67987;BME280;54767;53.800;15.956;2023-04-27T10:46:10;100495.23;;;8.90;52.07
67987;BME280;54767;53.800;15.956;2023-04-27T10:48:41;100495.50;;;8.97;52.07
67987;BME280;54767;53.800;15.956;2023-04-27T10:51:09;100497.48;;;9.02;51.78
67987;BME280;54767;53.800;15.956;2023-04-27T10:53:36;100497.89;;;9.06;51.61
67987;BME280;54767;53.800;15.956;2023-04-27T10:56:04;100502.96;;;9.08;51.60
67987;BME280;54767;53.800;15.956;2023-04-27T10:58:34;100506.25;;;9.06;51.52
67987;BME280;54767;53.800;15.956;2023-04-27T11:01:24;100508.45;;;9.00;51.75
67987;BME280;54767;53.800;15.956;2023-04-27T11:03:59;100505.95;;;8.95;51.56
67987;BME280;54767;53.800;15.956;2023-04-27T11:06:27;100514.95;;;8.90;50.98
67987;BME280;54767;53.800;15.956;2023-04-27T11:08:55;100514.70;;;8.83;50.54
67987;BME280;54767;53.800;15.956;2023-04-27T11:11:22;100520.72;;;8.76;50.75
67987;BME280;54767;53.800;15.956;2023-04-27T11:13:50;100514.32;;;8.69;51.31
67987;BME280;54767;53.800;15.956;2023-04-27T11:16:21;100515.77;;;8.60;51.44
67987;BME280;54767;53.800;15.956;2023-04-27T11:18:48;100509.54;;;8.52;51.57
67987;BME280;54767;53.800;15.956;2023-04-27T11:21:17;100511.03;;;8.46;51.68
67987;BME280;54767;53.800;15.956;2023-04-27T11:23:46;100508.42;;;8.48;52.36
67987;BME280;54767;53.800;15.956;2023-04-27T11:26:20;100507.67;;;8.56;52.83
67987;BME280;54767;53.800;15.956;2023-04-27T11:29:04;100504.18;;;8.67;53.12
67987;BME280;54767;53.800;15.956;2023-04-27T11:31:43;100507.13;;;8.79;53.07
67987;BME280;54767;53.800;15.956;2023-04-27T11:36:42;100518.78;;;8.89;52.16
67987;BME280;54767;53.800;15.956;2023-04-27T11:39:16;100523.36;;;8.92;52.11
67987;BME280;54767;53.800;15.956;2023-04-27T11:41:48;100526.88;;;8.94;52.02
67987;BME280;54767;53.800;15.956;2023-04-27T11:44:15;100530.55;;;8.95;52.26
67987;BME280;54767;53.800;15.956;2023-04-27T11:46:43;100533.86;;;8.94;51.87
67987;BME280;54767;53.800;15.956;2023-04-27T11:49:13;100537.33;;;8.93;52.17
67987;BME280;54767;53.800;15.956;2023-04-27T11:51:41;100542.91;;;8.93;52.59
67987;BME280;54767;53.800;15.956;2023-04-27T11:54:10;100549.16;;;8.90;52.74
67987;BME280;54767;53.800;15.956;2023-04-27T11:56:41;100561.15;;;8.87;52.87
67987;BME280;54767;53.800;15.956;2023-04-27T11:59:21;100560.77;;;8.84;53.52
67987;BME280;54767;53.800;15.956;2023-04-27T12:01:53;100559.17;;;8.81;53.75
67987;BME280;54767;53.800;15.956;2023-04-27T12:04:20;100558.18;;;8.86;54.84
67987;BME280;54767;53.800;15.956;2023-04-27T12:06:47;100562.70;;;8.96;54.99
67987;BME280;54767;53.800;15.956;2023-04-27T12:09:14;100561.70;;;9.01;54.71
67987;BME280;54767;53.800;15.956;2023-04-27T12:11:42;100566.42;;;9.01;53.98
67987;BME280;54767;53.800;15.956;2023-04-27T12:14:10;100565.86;;;8.99;53.18
67987;BME280;54767;53.800;15.956;2023-04-27T12:16:36;100562.15;;;8.94;52.46
67987;BME280;54767;53.800;15.956;2023-04-27T12:19:04;100560.50;;;8.91;52.39
67987;BME280;54767;53.800;15.956;2023-04-27T12:21:30;100565.11;;;8.94;52.97
67987;BME280;54767;53.800;15.956;2023-04-27T12:23:57;100553.66;;;9.00;53.25
67987;BME280;54767;53.800;15.956;2023-04-27T12:26:24;100554.49;;;9.10;53.38
67987;BME280;54767;53.800;15.956;2023-04-27T12:28:51;100550.45;;;9.20;53.11
67987;BME280;54767;53.800;15.956;2023-04-27T12:31:19;100546.54;;;9.30;52.88
67987;BME280;54767;53.800;15.956;2023-04-27T12:33:53;100543.55;;;9.43;53.35
67987;BME280;54767;53.800;15.956;2023-04-27T12:36:20;100538.45;;;9.56;52.87
67987;BME280;54767;53.800;15.956;2023-04-27T12:38:47;100537.04;;;9.70;52.32
67987;BME280;54767;53.800;15.956;2023-04-27T12:41:13;100539.13;;;9.87;53.02
67987;BME280;54767;53.800;15.956;2023-04-27T12:43:40;100534.92;;;10.04;52.78
67987;BME280;54767;53.800;15.956;2023-04-27T12:46:09;100542.05;;;10.22;52.09
67987;BME280;54767;53.800;15.956;2023-04-27T12:48:37;100539.02;;;10.32;50.17
67987;BME280;54767;53.800;15.956;2023-04-27T12:51:04;100538.49;;;10.31;48.88
67987;BME280;54767;53.800;15.956;2023-04-27T12:53:32;100537.73;;;10.27;48.05
67987;BME280;54767;53.800;15.956;2023-04-27T12:56:00;100537.52;;;10.24;48.90
67987;BME280;54767;53.800;15.956;2023-04-27T12:58:27;100546.11;;;10.24;49.25
67987;BME280;54767;53.800;15.956;2023-04-27T13:00:55;100557.91;;;10.15;48.97
67987;BME280;54767;53.800;15.956;2023-04-27T13:03:23;100572.90;;;9.90;49.31
67987;BME280;54767;53.800;15.956;2023-04-27T13:05:50;100585.87;;;9.62;50.18